sensor_id;sensor_type;location;lat;lon;timestamp;pressure;altitude;pressure_sealevel;temperature;humidity
77574;BME280;66710;48.868;9.080;2023-02-11T00:00:31;100040.03;;;-1.00;67.59
77574;BME280;66710;48.868;9.080;2023-02-11T00:02:57;100037.44;;;-1.20;68.41
77574;BME280;66710;48.868;9.080;2023-02-11T00:05:22;100047.00;;;-1.27;69.06
77574;BME280;66710;48.868;9.080;2023-02-11T00:07:48;100045.03;;;-1.35;69.05
77574;BME280;66710;48.868;9.080;2023-02-11T00:10:13;100046.19;;;-1.47;69.97
77574;BME280;66710;48.868;9.080;2023-02-11T00:12:38;100046.19;;;-1.47;69.96
77574;BME280;66710;48.868;9.080;2023-02-11T00:15:06;100038.50;;;-1.50;69.83
77574;BME280;66710;48.868;9.080;2023-02-11T00:17:32;100045.22;;;-1.56;70.18
77574;BME280;66710;48.868;9.080;2023-02-11T00:19:57;100035.81;;;-1.60;70.17
77574;BME280;66710;48.868;9.080;2023-02-11T00:22:22;100044.44;;;-1.66;71.02
77574;BME280;66710;48.868;9.080;2023-02-11T00:24:48;100035.00;;;-1.70;71.24
77574;BME280;66710;48.868;9.080;2023-02-11T00:27:13;100036.13;;;-1.73;71.53
77574;BME280;66710;48.868;9.080;2023-02-11T00:29:38;100034.03;;;-1.79;72.00
77574;BME280;66710;48.868;9.080;2023-02-11T00:32:05;100023.19;;;-1.77;71.95
77574;BME280;66710;48.868;9.080;2023-02-11T00:34:31;100019.41;;;-1.84;72.06
77574;BME280;66710;48.868;9.080;2023-02-11T00:36:57;100027.56;;;-1.86;72.66
77574;BME280;66710;48.868;9.080;2023-02-11T00:39:23;100026.16;;;-1.90;71.57
77574;BME280;66710;48.868;9.080;2023-02-11T00:41:48;100029.13;;;-1.93;73.10
77574;BME280;66710;48.868;9.080;2023-02-11T00:44:13;100029.53;;;-1.88;71.87
77574;BME280;66710;48.868;9.080;2023-02-11T00:46:39;100033.59;;;-1.84;72.29
77574;BME280;66710;48.868;9.080;2023-02-11T00:49:04;100036.00;;;-1.91;72.53
77574;BME280;66710;48.868;9.080;2023-02-11T00:51:29;100032.63;;;-1.93;72.90
77574;BME280;66710;48.868;9.080;2023-02-11T00:53:55;100042.59;;;-1.95;72.68
77574;BME280;66710;48.868;9.080;2023-02-11T00:56:20;100033.75;;;-1.95;71.72
77574;BME280;66710;48.868;9.080;2023-02-11T00:58:46;100032.19;;;-1.98;72.70
77574;BME280;66710;48.868;9.080;2023-02-11T01:01:12;100025.88;;;-1.97;72.78
77574;BME280;66710;48.868;9.080;2023-02-11T01:03:38;100017.19;;;-1.99;72.31
77574;BME280;66710;48.868;9.080;2023-02-11T01:06:06;100019.81;;;-1.89;72.90
77574;BME280;66710;48.868;9.080;2023-02-11T01:08:31;100005.50;;;-1.98;73.52
77574;BME280;66710;48.868;9.080;2023-02-11T01:10:59;100002.00;;;-1.98;72.98
77574;BME280;66710;48.868;9.080;2023-02-11T01:13:25;100008.34;;;-1.99;73.81
77574;BME280;66710;48.868;9.080;2023-02-11T01:15:51;100003.69;;;-1.97;73.39
77574;BME280;66710;48.868;9.080;2023-02-11T01:18:17;99999.47;;;-1.90;73.29
77574;BME280;66710;48.868;9.080;2023-02-11T01:20:42;99995.22;;;-1.93;73.36
77574;BME280;66710;48.868;9.080;2023-02-11T01:23:08;99991.16;;;-1.87;72.72
77574;BME280;66710;48.868;9.080;2023-02-11T01:25:33;99992.56;;;-1.93;72.85
77574;BME280;66710;48.868;9.080;2023-02-11T01:27:58;99992.16;;;-1.88;73.42
77574;BME280;66710;48.868;9.080;2023-02-11T01:30:24;99987.50;;;-1.86;72.67
77574;BME280;66710;48.868;9.080;2023-02-11T01:32:49;99987.78;;;-1.79;72.94
77574;BME280;66710;48.868;9.080;2023-02-11T01:35:15;99990.03;;;-1.84;72.07
77574;BME280;66710;48.868;9.080;2023-02-11T01:37:40;99981.59;;;-1.80;72.97
77574;BME280;66710;48.868;9.080;2023-02-11T01:40:12;99987.09;;;-1.81;72.35
77574;BME280;66710;48.868;9.080;2023-02-11T01:42:39;99981.59;;;-1.89;71.92
77574;BME280;66710;48.868;9.080;2023-02-11T01:48:10;99973.75;;;-2.01;73.16
77574;BME280;66710;48.868;9.080;2023-02-11T01:50:39;99986.66;;;-1.96;72.80
77574;BME280;66710;48.868;9.080;2023-02-11T01:53:05;99986.66;;;-1.86;72.72
77574;BME280;66710;48.868;9.080;2023-02-11T01:55:51;99982.28;;;-1.87;72.09
77574;BME280;66710;48.868;9.080;2023-02-11T01:58:37;99981.47;;;-1.98;72.91
77574;BME280;66710;48.868;9.080;2023-02-11T02:01:04;99970.38;;;-2.03;73.59
77574;BME280;66710;48.868;9.080;2023-02-11T02:03:33;99975.59;;;-2.11;73.62
77574;BME280;66710;48.868;9.080;2023-02-11T02:08:39;99978.53;;;-2.14;73.72
77574;BME280;66710;48.868;9.080;2023-02-11T02:11:08;99975.03;;;-2.15;73.14
77574;BME280;66710;48.868;9.080;2023-02-11T02:13:34;99971.53;;;-2.15;72.77
77574;BME280;66710;48.868;9.080;2023-02-11T02:18:44;99957.03;;;-2.22;74.05
77574;BME280;66710;48.868;9.080;2023-02-11T02:24:20;99960.69;;;-2.14;74.11
77574;BME280;66710;48.868;9.080;2023-02-11T02:30:37;99960.97;;;-2.17;74.36
77574;BME280;66710;48.868;9.080;2023-02-11T02:35:26;99965.91;;;-2.22;74.13
77574;BME280;66710;48.868;9.080;2023-02-11T02:38:22;99956.34;;;-2.24;74.04
77574;BME280;66710;48.868;9.080;2023-02-11T02:41:03;99954.94;;;-2.29;74.21
77574;BME280;66710;48.868;9.080;2023-02-11T02:43:32;99942.88;;;-2.33;73.48
77574;BME280;66710;48.868;9.080;2023-02-11T02:46:24;99943.56;;;-2.40;74.36
77574;BME280;66710;48.868;9.080;2023-02-11T02:48:50;99932.75;;;-2.49;74.99
77574;BME280;66710;48.868;9.080;2023-02-11T02:56:57;99929.53;;;-2.42;75.23
77574;BME280;66710;48.868;9.080;2023-02-11T03:01:58;99929.81;;;-2.36;74.51
77574;BME280;66710;48.868;9.080;2023-02-11T03:04:51;99924.88;;;-2.31;75.17
77574;BME280;66710;48.868;9.080;2023-02-11T03:12:41;99897.63;;;-2.44;75.98
77574;BME280;66710;48.868;9.080;2023-02-11T03:15:08;99896.94;;;-2.46;75.64
77574;BME280;66710;48.868;9.080;2023-02-11T03:17:34;99896.66;;;-2.53;76.05
77574;BME280;66710;48.868;9.080;2023-02-11T03:20:04;99895.84;;;-2.43;76.03
77574;BME280;66710;48.868;9.080;2023-02-11T03:22:40;99894.97;;;-2.44;75.45
77574;BME280;66710;48.868;9.080;2023-02-11T03:25:07;99893.56;;;-2.48;76.41
77574;BME280;66710;48.868;9.080;2023-02-11T03:27:44;99895.81;;;-2.53;77.15
77574;BME280;66710;48.868;9.080;2023-02-11T03:30:21;99891.63;;;-2.56;76.24
77574;BME280;66710;48.868;9.080;2023-02-11T03:32:53;99897.66;;;-2.54;76.64
77574;BME280;66710;48.868;9.080;2023-02-11T03:35:37;99897.34;;;-2.51;76.36
77574;BME280;66710;48.868;9.080;2023-02-11T03:38:06;99904.97;;;-2.56;76.97
77574;BME280;66710;48.868;9.080;2023-02-11T03:40:36;99909.44;;;-2.56;76.00
77574;BME280;66710;48.868;9.080;2023-02-11T03:43:09;99911.00;;;-2.54;76.81
77574;BME280;66710;48.868;9.080;2023-02-11T03:45:36;99904.38;;;-2.50;76.35
77574;BME280;66710;48.868;9.080;2023-02-11T03:50:36;99899.34;;;-2.43;76.67
77574;BME280;66710;48.868;9.080;2023-02-11T03:53:03;99900.59;;;-2.37;77.18
77574;BME280;66710;48.868;9.080;2023-02-11T03:55:32;99898.47;;;-2.24;76.39
77574;BME280;66710;48.868;9.080;2023-02-11T03:58:00;99903.50;;;-2.21;76.53
77574;BME280;66710;48.868;9.080;2023-02-11T04:00:33;99897.75;;;-2.16;76.12
77574;BME280;66710;48.868;9.080;2023-02-11T04:02:59;99912.34;;;-2.01;76.32
77574;BME280;66710;48.868;9.080;2023-02-11T04:05:24;99917.38;;;-1.88;76.38
77574;BME280;66710;48.868;9.080;2023-02-11T04:07:50;99922.84;;;-1.80;75.88
77574;BME280;66710;48.868;9.080;2023-02-11T04:10:15;99916.50;;;-1.79;76.10
77574;BME280;66710;48.868;9.080;2023-02-11T04:12:41;99924.50;;;-1.79;75.84
77574;BME280;66710;48.868;9.080;2023-02-11T04:15:06;99924.22;;;-1.76;75.87
77574;BME280;66710;48.868;9.080;2023-02-11T04:17:32;99919.44;;;-1.72;75.67
77574;BME280;66710;48.868;9.080;2023-02-11T04:19:57;99922.78;;;-1.70;75.11
77574;BME280;66710;48.868;9.080;2023-02-11T04:22:23;99926.88;;;-1.66;75.18
77574;BME280;66710;48.868;9.080;2023-02-11T04:24:48;99924.75;;;-1.62;75.64
77574;BME280;66710;48.868;9.080;2023-02-11T04:27:14;99917.09;;;-1.57;75.35
77574;BME280;66710;48.868;9.080;2023-02-11T04:29:39;99917.97;;;-1.57;75.14
77574;BME280;66710;48.868;9.080;2023-02-11T04:32:04;99914.97;;;-1.44;74.61
77574;BME280;66710;48.868;9.080;2023-02-11T04:34:30;99919.63;;;-1.46;75.06
77574;BME280;66710;48.868;9.080;2023-02-11T04:36:55;99912.44;;;-1.45;75.11
77574;BME280;66710;48.868;9.080;2023-02-11T04:39:21;99911.13;;;-1.41;74.99
77574;BME280;66710;48.868;9.080;2023-02-11T04:41:46;99911.13;;;-1.41;75.36
77574;BME280;66710;48.868;9.080;2023-02-11T04:44:11;99910.16;;;-1.40;74.90
77574;BME280;66710;48.868;9.080;2023-02-11T04:46:37;99904.13;;;-1.42;75.41
77574;BME280;66710;48.868;9.080;2023-02-11T04:49:02;99907.50;;;-1.40;75.59
77574;BME280;66710;48.868;9.080;2023-02-11T04:51:28;99902.00;;;-1.39;75.89
77574;BME280;66710;48.868;9.080;2023-02-11T04:53:53;99906.03;;;-1.35;75.85
77574;BME280;66710;48.868;9.080;2023-02-11T04:56:18;99909.72;;;-1.36;75.68
77574;BME280;66710;48.868;9.080;2023-02-11T04:58:44;99912.25;;;-1.34;75.65
77574;BME280;66710;48.868;9.080;2023-02-11T05:01:12;99916.06;;;-1.37;76.80
77574;BME280;66710;48.868;9.080;2023-02-11T05:03:39;99913.38;;;-1.37;76.44
77574;BME280;66710;48.868;9.080;2023-02-11T05:06:04;99914.75;;;-1.33;75.94
77574;BME280;66710;48.868;9.080;2023-02-11T05:08:30;99899.19;;;-1.37;75.49
77574;BME280;66710;48.868;9.080;2023-02-11T05:10:55;99876.09;;;-1.38;75.76
77574;BME280;66710;48.868;9.080;2023-02-11T05:13:21;99868.56;;;-1.43;75.70
77574;BME280;66710;48.868;9.080;2023-02-11T05:15:46;99878.38;;;-1.43;75.87
77574;BME280;66710;48.868;9.080;2023-02-11T05:18:12;99874.88;;;-1.44;75.38
77574;BME280;66710;48.868;9.080;2023-02-11T05:20:39;99858.97;;;-1.45;75.25
77574;BME280;66710;48.868;9.080;2023-02-11T05:23:05;99855.47;;;-1.46;75.71
77574;BME280;66710;48.868;9.080;2023-02-11T05:25:30;99859.81;;;-1.45;75.30
77574;BME280;66710;48.868;9.080;2023-02-11T05:27:55;99857.59;;;-1.49;75.48
77574;BME280;66710;48.868;9.080;2023-02-11T05:30:21;99856.47;;;-1.47;75.47
77574;BME280;66710;48.868;9.080;2023-02-11T05:32:46;99848.28;;;-1.45;75.98
77574;BME280;66710;48.868;9.080;2023-02-11T05:35:11;99846.84;;;-1.40;76.78
77574;BME280;66710;48.868;9.080;2023-02-11T05:37:37;99842.22;;;-1.38;76.59
77574;BME280;66710;48.868;9.080;2023-02-11T05:40:03;99845.72;;;-1.37;75.61
77574;BME280;66710;48.868;9.080;2023-02-11T05:42:28;99849.91;;;-1.35;76.51
77574;BME280;66710;48.868;9.080;2023-02-11T05:44:54;99850.31;;;-1.29;75.73
77574;BME280;66710;48.868;9.080;2023-02-11T05:47:19;99850.31;;;-1.29;75.84
77574;BME280;66710;48.868;9.080;2023-02-11T05:49:44;99846.13;;;-1.32;75.49
77574;BME280;66710;48.868;9.080;2023-02-11T05:52:10;99862.16;;;-1.32;76.62
77574;BME280;66710;48.868;9.080;2023-02-11T05:54:35;99857.50;;;-1.30;76.34
77574;BME280;66710;48.868;9.080;2023-02-11T05:57:01;99861.84;;;-1.29;76.53
77574;BME280;66710;48.868;9.080;2023-02-11T05:59:26;99868.72;;;-1.26;75.33
77574;BME280;66710;48.868;9.080;2023-02-11T06:01:52;99864.47;;;-1.19;75.45
77574;BME280;66710;48.868;9.080;2023-02-11T06:04:17;99870.50;;;-1.17;75.52
77574;BME280;66710;48.868;9.080;2023-02-11T06:06:42;99868.84;;;-1.18;75.94
77574;BME280;66710;48.868;9.080;2023-02-11T06:09:09;99868.31;;;-1.04;75.83
77574;BME280;66710;48.868;9.080;2023-02-11T06:11:35;99875.44;;;-0.94;75.58
77574;BME280;66710;48.868;9.080;2023-02-11T06:14:00;99881.47;;;-0.92;75.01
77574;BME280;66710;48.868;9.080;2023-02-11T06:16:26;99880.63;;;-0.93;75.37
77574;BME280;66710;48.868;9.080;2023-02-11T06:18:51;99872.59;;;-0.93;75.35
77574;BME280;66710;48.868;9.080;2023-02-11T06:21:17;99869.94;;;-0.93;75.36
77574;BME280;66710;48.868;9.080;2023-02-11T06:23:42;99872.50;;;-1.01;75.25
77574;BME280;66710;48.868;9.080;2023-02-11T06:26:16;99873.50;;;-1.02;75.49
77574;BME280;66710;48.868;9.080;2023-02-11T06:28:42;99880.25;;;-0.98;75.41
77574;BME280;66710;48.868;9.080;2023-02-11T06:31:07;99871.78;;;-0.93;75.84
77574;BME280;66710;48.868;9.080;2023-02-11T06:33:34;99862.59;;;-0.91;75.75
77574;BME280;66710;48.868;9.080;2023-02-11T06:36:00;99860.22;;;-0.94;75.82
77574;BME280;66710;48.868;9.080;2023-02-11T06:38:25;99866.34;;;-0.84;75.46
77574;BME280;66710;48.868;9.080;2023-02-11T06:40:50;99868.19;;;-0.84;75.12
77574;BME280;66710;48.868;9.080;2023-02-11T06:43:16;99878.00;;;-0.85;75.29
77574;BME280;66710;48.868;9.080;2023-02-11T06:45:41;99878.00;;;-0.85;75.56
77574;BME280;66710;48.868;9.080;2023-02-11T06:48:07;99877.56;;;-0.80;75.15
77574;BME280;66710;48.868;9.080;2023-02-11T06:50:33;99874.06;;;-0.81;75.50
77574;BME280;66710;48.868;9.080;2023-02-11T06:52:58;99874.84;;;-0.70;75.17
77574;BME280;66710;48.868;9.080;2023-02-11T06:55:24;99884.91;;;-0.64;75.12
77574;BME280;66710;48.868;9.080;2023-02-11T06:57:49;99888.41;;;-0.64;75.39
77574;BME280;66710;48.868;9.080;2023-02-11T07:00:15;99893.47;;;-0.61;75.18
77574;BME280;66710;48.868;9.080;2023-02-11T07:02:40;99886.81;;;-0.57;75.20
77574;BME280;66710;48.868;9.080;2023-02-11T07:05:06;99887.72;;;-0.48;74.86
77574;BME280;66710;48.868;9.080;2023-02-11T07:07:32;99880.22;;;-0.44;74.69
77574;BME280;66710;48.868;9.080;2023-02-11T07:09:57;99874.88;;;-0.44;75.34
77574;BME280;66710;48.868;9.080;2023-02-11T07:12:23;99883.22;;;-0.47;76.12
77574;BME280;66710;48.868;9.080;2023-02-11T07:14:48;99881.09;;;-0.44;75.78
77574;BME280;66710;48.868;9.080;2023-02-11T07:17:13;99885.22;;;-0.49;76.20
77574;BME280;66710;48.868;9.080;2023-02-11T07:19:39;99886.88;;;-0.48;76.08
77574;BME280;66710;48.868;9.080;2023-02-11T07:22:04;99883.38;;;-0.49;75.84
77574;BME280;66710;48.868;9.080;2023-02-11T07:24:30;99894.09;;;-0.49;75.79
77574;BME280;66710;48.868;9.080;2023-02-11T07:26:55;99885.91;;;-0.47;75.73
77574;BME280;66710;48.868;9.080;2023-02-11T07:29:20;99894.47;;;-0.44;75.25
77574;BME280;66710;48.868;9.080;2023-02-11T07:31:46;99906.84;;;-0.43;75.28
77574;BME280;66710;48.868;9.080;2023-02-11T07:34:11;99902.19;;;-0.41;75.17
77574;BME280;66710;48.868;9.080;2023-02-11T07:36:36;99895.53;;;-0.36;75.40
77574;BME280;66710;48.868;9.080;2023-02-11T07:39:02;99900.59;;;-0.33;74.86
77574;BME280;66710;48.868;9.080;2023-02-11T07:41:28;99898.44;;;-0.30;74.71
77574;BME280;66710;48.868;9.080;2023-02-11T07:43:53;99903.16;;;-0.24;75.11
77574;BME280;66710;48.868;9.080;2023-02-11T07:46:22;99909.03;;;-0.20;74.41
77574;BME280;66710;48.868;9.080;2023-02-11T07:48:48;99903.91;;;-0.13;74.21
77574;BME280;66710;48.868;9.080;2023-02-11T07:51:16;99881.53;;;-0.04;73.99
77574;BME280;66710;48.868;9.080;2023-02-11T07:53:42;99879.22;;;0.01;73.94
77574;BME280;66710;48.868;9.080;2023-02-11T07:56:09;99874.41;;;0.05;73.93
77574;BME280;66710;48.868;9.080;2023-02-11T07:58:35;99880.78;;;0.04;73.96
77574;BME280;66710;48.868;9.080;2023-02-11T08:01:06;99874.31;;;0.14;73.93
77574;BME280;66710;48.868;9.080;2023-02-11T08:03:33;99860.03;;;0.14;74.22
77574;BME280;66710;48.868;9.080;2023-02-11T08:06:04;99867.31;;;0.30;73.32
77574;BME280;66710;48.868;9.080;2023-02-11T08:08:30;99859.69;;;0.43;72.70
77574;BME280;66710;48.868;9.080;2023-02-11T08:10:55;99857.75;;;0.53;72.72
77574;BME280;66710;48.868;9.080;2023-02-11T08:13:20;99857.47;;;0.73;71.78
77574;BME280;66710;48.868;9.080;2023-02-11T08:15:46;99869.53;;;0.77;71.52
77574;BME280;66710;48.868;9.080;2023-02-11T08:18:11;99874.13;;;0.85;72.30
77574;BME280;66710;48.868;9.080;2023-02-11T08:20:36;99872.63;;;0.99;72.65
77574;BME280;66710;48.868;9.080;2023-02-11T08:23:02;99868.28;;;1.06;71.76
77574;BME280;66710;48.868;9.080;2023-02-11T08:25:29;99888.09;;;1.05;71.60
77574;BME280;66710;48.868;9.080;2023-02-11T08:27:54;99881.19;;;1.02;71.48
77574;BME280;66710;48.868;9.080;2023-02-11T08:30:20;99881.25;;;1.19;71.53
77574;BME280;66710;48.868;9.080;2023-02-11T08:32:45;99873.84;;;1.12;71.42
77574;BME280;66710;48.868;9.080;2023-02-11T08:35:10;99879.53;;;1.09;71.79
77574;BME280;66710;48.868;9.080;2023-02-11T08:37:36;99884.63;;;1.29;70.96
77574;BME280;66710;48.868;9.080;2023-02-11T08:40:02;99878.09;;;1.40;71.11
77574;BME280;66710;48.868;9.080;2023-02-11T08:42:27;99878.09;;;1.56;70.34
77574;BME280;66710;48.868;9.080;2023-02-11T08:44:53;99872.19;;;2.10;68.94
77574;BME280;66710;48.868;9.080;2023-02-11T08:47:18;99870.91;;;2.37;68.69
77574;BME280;66710;48.868;9.080;2023-02-11T08:49:43;99861.47;;;2.50;67.18
77574;BME280;66710;48.868;9.080;2023-02-11T08:52:09;99863.19;;;2.34;68.04
77574;BME280;66710;48.868;9.080;2023-02-11T08:54:34;99851.28;;;2.68;67.85
77574;BME280;66710;48.868;9.080;2023-02-11T08:57:01;99853.03;;;2.92;66.62
77574;BME280;66710;48.868;9.080;2023-02-11T08:59:26;99862.34;;;3.13;65.66
77574;BME280;66710;48.868;9.080;2023-02-11T09:01:51;99877.25;;;3.23;65.43
77574;BME280;66710;48.868;9.080;2023-02-11T09:04:17;99877.63;;;3.12;64.96
77574;BME280;66710;48.868;9.080;2023-02-11T09:06:43;99875.81;;;3.36;64.76
77574;BME280;66710;48.868;9.080;2023-02-11T09:09:11;99871.69;;;3.25;65.79
77574;BME280;66710;48.868;9.080;2023-02-11T09:11:38;99863.28;;;3.66;64.83
77574;BME280;66710;48.868;9.080;2023-02-11T09:14:04;99861.50;;;3.96;63.49
77574;BME280;66710;48.868;9.080;2023-02-11T09:16:34;99867.59;;;4.13;63.53
77574;BME280;66710;48.868;9.080;2023-02-11T09:19:01;99870.28;;;3.75;64.30
77574;BME280;66710;48.868;9.080;2023-02-11T09:21:28;99866.03;;;4.49;63.14
77574;BME280;66710;48.868;9.080;2023-02-11T09:23:54;99866.53;;;4.89;61.73
77574;BME280;66710;48.868;9.080;2023-02-11T09:26:26;99867.22;;;4.46;62.75
77574;BME280;66710;48.868;9.080;2023-02-11T09:28:52;99854.88;;;4.88;60.82
77574;BME280;66710;48.868;9.080;2023-02-11T09:31:21;99852.28;;;4.95;60.83
77574;BME280;66710;48.868;9.080;2023-02-11T09:33:49;99846.94;;;5.66;59.63
77574;BME280;66710;48.868;9.080;2023-02-11T09:36:23;99851.84;;;5.78;59.48
77574;BME280;66710;48.868;9.080;2023-02-11T09:38:50;99854.59;;;6.06;58.27
77574;BME280;66710;48.868;9.080;2023-02-11T09:43:47;99861.28;;;6.10;57.54
77574;BME280;66710;48.868;9.080;2023-02-11T09:46:15;99863.00;;;5.89;57.74
77574;BME280;66710;48.868;9.080;2023-02-11T09:48:43;99876.91;;;5.65;59.14
77574;BME280;66710;48.868;9.080;2023-02-11T09:51:20;99876.84;;;5.58;58.92
77574;BME280;66710;48.868;9.080;2023-02-11T09:53:48;99869.94;;;5.56;58.57
77574;BME280;66710;48.868;9.080;2023-02-11T09:56:15;99876.88;;;5.43;59.15
77574;BME280;66710;48.868;9.080;2023-02-11T09:58:41;99878.47;;;5.16;59.80
77574;BME280;66710;48.868;9.080;2023-02-11T10:01:18;99888.22;;;5.54;59.41
77574;BME280;66710;48.868;9.080;2023-02-11T10:04:03;99885.06;;;5.93;57.80
77574;BME280;66710;48.868;9.080;2023-02-11T10:06:52;99884.63;;;6.11;57.73
77574;BME280;66710;48.868;9.080;2023-02-11T10:12:14;99893.66;;;6.60;56.61
77574;BME280;66710;48.868;9.080;2023-02-11T10:17:36;99889.03;;;7.50;53.94
77574;BME280;66710;48.868;9.080;2023-02-11T10:20:26;99890.34;;;8.28;51.98
77574;BME280;66710;48.868;9.080;2023-02-11T10:22:57;99900.00;;;7.22;54.36
77574;BME280;66710;48.868;9.080;2023-02-11T10:25:26;99891.56;;;7.92;53.71
77574;BME280;66710;48.868;9.080;2023-02-11T10:27:56;99884.66;;;8.29;53.71
77574;BME280;66710;48.868;9.080;2023-02-11T10:30:33;99888.06;;;9.03;51.81
77574;BME280;66710;48.868;9.080;2023-02-11T10:33:19;99893.38;;;8.85;51.99
77574;BME280;66710;48.868;9.080;2023-02-11T10:35:47;99892.16;;;9.19;51.17
77574;BME280;66710;48.868;9.080;2023-02-11T10:38:12;99885.06;;;10.39;51.79
77574;BME280;66710;48.868;9.080;2023-02-11T10:40:37;99889.00;;;10.18;51.40
77574;BME280;66710;48.868;9.080;2023-02-11T10:43:05;99877.78;;;9.51;51.76
77574;BME280;66710;48.868;9.080;2023-02-11T10:45:35;99885.13;;;10.32;51.90
77574;BME280;66710;48.868;9.080;2023-02-11T10:48:03;99883.00;;;10.59;51.26
77574;BME280;66710;48.868;9.080;2023-02-11T10:50:31;99859.41;;;10.03;51.79
77574;BME280;66710;48.868;9.080;2023-02-11T10:53:19;99858.47;;;9.91;52.07
77574;BME280;66710;48.868;9.080;2023-02-11T10:55:55;99845.59;;;10.23;51.04
77574;BME280;66710;48.868;9.080;2023-02-11T11:00:58;99847.66;;;10.71;51.62
77574;BME280;66710;48.868;9.080;2023-02-11T11:03:26;99842.19;;;10.53;50.89
77574;BME280;66710;48.868;9.080;2023-02-11T11:05:57;99829.34;;;9.66;53.47
77574;BME280;66710;48.868;9.080;2023-02-11T11:08:38;99835.06;;;9.83;52.37
77574;BME280;66710;48.868;9.080;2023-02-11T11:11:07;99831.66;;;9.87;53.19
77574;BME280;66710;48.868;9.080;2023-02-11T11:14:00;99830.91;;;10.49;50.91
77574;BME280;66710;48.868;9.080;2023-02-11T11:16:34;99827.56;;;10.84;50.69
77574;BME280;66710;48.868;9.080;2023-02-11T11:21:39;99829.13;;;10.92;50.96
77574;BME280;66710;48.868;9.080;2023-02-11T11:24:15;99829.34;;;11.09;50.79
77574;BME280;66710;48.868;9.080;2023-02-11T11:26:44;99827.22;;;11.11;50.93
77574;BME280;66710;48.868;9.080;2023-02-11T11:29:15;99831.66;;;10.56;49.27
77574;BME280;66710;48.868;9.080;2023-02-11T11:31:53;99824.69;;;10.79;48.72
77574;BME280;66710;48.868;9.080;2023-02-11T11:34:30;99831.56;;;11.30;49.55
77574;BME280;66710;48.868;9.080;2023-02-11T11:36:58;99827.25;;;11.53;47.94
77574;BME280;66710;48.868;9.080;2023-02-11T11:39:30;99829.94;;;9.93;49.55
77574;BME280;66710;48.868;9.080;2023-02-11T11:42:00;99827.31;;;10.05;49.80
77574;BME280;66710;48.868;9.080;2023-02-11T11:44:35;99819.47;;;11.08;48.56
77574;BME280;66710;48.868;9.080;2023-02-11T11:49:38;99820.34;;;12.16;46.24
77574;BME280;66710;48.868;9.080;2023-02-11T11:52:17;99811.97;;;12.70;45.93
77574;BME280;66710;48.868;9.080;2023-02-11T11:54:48;99805.91;;;11.62;46.64
77574;BME280;66710;48.868;9.080;2023-02-11T11:57:21;99805.25;;;12.89;46.35
77574;BME280;66710;48.868;9.080;2023-02-11T11:59:49;99812.47;;;13.53;44.63
77574;BME280;66710;48.868;9.080;2023-02-11T12:02:46;99812.63;;;12.25;45.42
77574;BME280;66710;48.868;9.080;2023-02-11T12:05:27;99813.09;;;12.10;45.76
77574;BME280;66710;48.868;9.080;2023-02-11T12:08:28;99805.22;;;12.61;45.08
77574;BME280;66710;48.868;9.080;2023-02-11T12:14:58;99803.00;;;12.46;45.00
77574;BME280;66710;48.868;9.080;2023-02-11T12:25:25;99823.41;;;10.63;48.58
77574;BME280;66710;48.868;9.080;2023-02-11T12:33:19;99808.50;;;11.14;47.74
77574;BME280;66710;48.868;9.080;2023-02-11T12:41:44;99824.63;;;10.49;49.48
77574;BME280;66710;48.868;9.080;2023-02-11T12:49:53;99820.59;;;12.14;46.25
77574;BME280;66710;48.868;9.080;2023-02-11T12:55:18;99809.13;;;11.82;46.74
77574;BME280;66710;48.868;9.080;2023-02-11T12:57:47;99814.16;;;11.43;47.63
77574;BME280;66710;48.868;9.080;2023-02-11T13:00:18;99813.47;;;11.48;48.24
77574;BME280;66710;48.868;9.080;2023-02-11T13:02:53;99809.41;;;12.92;46.31
77574;BME280;66710;48.868;9.080;2023-02-11T13:08:06;99798.47;;;12.40;45.89
77574;BME280;66710;48.868;9.080;2023-02-11T13:10:45;99789.16;;;12.52;45.82
77574;BME280;66710;48.868;9.080;2023-02-11T13:13:34;99787.66;;;12.33;46.37
77574;BME280;66710;48.868;9.080;2023-02-11T13:16:05;99781.63;;;12.07;45.95
77574;BME280;66710;48.868;9.080;2023-02-11T13:18:44;99782.34;;;12.03;46.15
77574;BME280;66710;48.868;9.080;2023-02-11T13:21:17;99779.34;;;12.28;45.35
77574;BME280;66710;48.868;9.080;2023-02-11T13:26:26;99773.13;;;11.73;45.93
77574;BME280;66710;48.868;9.080;2023-02-11T13:29:05;99775.69;;;11.99;46.36
77574;BME280;66710;48.868;9.080;2023-02-11T13:31:33;99774.50;;;12.06;45.29
77574;BME280;66710;48.868;9.080;2023-02-11T13:33:59;99785.31;;;12.13;44.97
77574;BME280;66710;48.868;9.080;2023-02-11T13:36:26;99771.00;;;12.46;45.06
77574;BME280;66710;48.868;9.080;2023-02-11T13:39:01;99771.25;;;11.62;45.97
77574;BME280;66710;48.868;9.080;2023-02-11T13:41:38;99773.28;;;11.67;45.95
77574;BME280;66710;48.868;9.080;2023-02-11T13:49:26;99775.59;;;12.69;43.80
77574;BME280;66710;48.868;9.080;2023-02-11T13:51:55;99767.94;;;12.19;45.70
77574;BME280;66710;48.868;9.080;2023-02-11T13:54:30;99775.28;;;12.42;44.73
77574;BME280;66710;48.868;9.080;2023-02-11T14:15:46;99765.34;;;13.51;41.91
77574;BME280;66710;48.868;9.080;2023-02-11T14:21:21;99762.63;;;13.51;41.61
77574;BME280;66710;48.868;9.080;2023-02-11T14:23:48;99748.84;;;12.60;43.54
77574;BME280;66710;48.868;9.080;2023-02-11T14:29:05;99762.81;;;12.35;43.74
77574;BME280;66710;48.868;9.080;2023-02-11T14:31:48;99762.16;;;12.04;44.91
77574;BME280;66710;48.868;9.080;2023-02-11T14:37:08;99771.38;;;12.79;44.04
77574;BME280;66710;48.868;9.080;2023-02-11T14:42:38;99763.09;;;13.02;42.55
77574;BME280;66710;48.868;9.080;2023-02-11T14:45:06;99771.59;;;11.66;45.10
77574;BME280;66710;48.868;9.080;2023-02-11T14:47:45;99768.50;;;11.08;46.68
77574;BME280;66710;48.868;9.080;2023-02-11T14:50:38;99776.25;;;11.23;46.63
77574;BME280;66710;48.868;9.080;2023-02-11T14:53:06;99788.09;;;10.87;47.95
77574;BME280;66710;48.868;9.080;2023-02-11T14:55:40;99784.50;;;10.56;48.13
77574;BME280;66710;48.868;9.080;2023-02-11T14:58:32;99796.94;;;10.27;49.19
77574;BME280;66710;48.868;9.080;2023-02-11T15:01:03;99799.06;;;9.56;50.30
77574;BME280;66710;48.868;9.080;2023-02-11T15:03:37;99794.91;;;9.53;51.51
77574;BME280;66710;48.868;9.080;2023-02-11T15:06:15;99804.50;;;9.56;51.36
77574;BME280;66710;48.868;9.080;2023-02-11T15:08:46;99794.34;;;9.44;52.16
77574;BME280;66710;48.868;9.080;2023-02-11T15:11:14;99797.56;;;9.28;52.38
77574;BME280;66710;48.868;9.080;2023-02-11T15:13:41;99802.66;;;8.86;53.06